Austin, TX (78727)

10:47 AM CST on December 25, 2014 (GMT -0600)
Lamplight Village | Change Station
CLOSE
Current Station
Personal Weather Station
Location: Austin, TX
Elevation: 726 ft
Nearby Weather Stations

Elev 726 ft 30.42 °N, 97.70 °W | Updated 60 seconds ago

Clear
Clear
57.0 °F
Feels Like 57.0 °F
N
6.9
Wind Variable Wind from South
Gusts 12.1 mph

Today
High -- | Low -- °F
--% Chance of Precip.
Yesterday
High -- | Low -- °F
Precip. -- in
7:25 AM 5:36 PM
Waxing Crescent, 17% visible
Pressure 30.11 in
Visibility 10.0 miles
Clouds Clear
Dew Point 1 °F
Humidity 10%
Rainfall 0.00 in
Snow Depth Not available.
UV 2 out of 12
Pollen 10.50 out of 12
Air Quality Not available.
Flu Activity Not available.
METAR KATT 251551Z AUTO VRB05KT 10SM CLR 10/M01 A3010 RMK AO2 SLP196 T01001011 $

More Conditions Fewer Conditions

Pressure 30.11 in
Visibility 10.0 miles
Clouds Clear
Dew Point 1 °F
Humidity 10%
Rainfall 0.00 in
Snow Depth Not available.
UV 2 out of 12
Pollen 10.50 out of 12
Air Quality Not available.
Flu Activity Not available.
METAR KATT 251551Z AUTO VRB05KT 10SM CLR 10/M01 A3010 RMK AO2 SLP196 T01001011 $

More Conditions Fewer Conditions

10-Day Weather Forecast

Almanac

Astronomy

Dec. 25, 2014 Rise Set
Actual Time
Civil Twilight
Nautical Twilight
Astronomical Twilight
Moon
Length of Visible Light
Length of Day
Tomorrow will be .
, % of the Moon is Illuminated

Today's Extremes

State Highs State Lows

Community

WunderPhotos

Upload Photos

1,780,339 photos uploaded!

WunderBlogs® & News

Nearby

Air Quality

  Air Quality AQ Index Pollutant
Not available.

Snow Depth

Station Depth Elevation

Earthquake Activity

City Distance Mag. Time & Date
Minimum magnitude displayed is 2.5.

Coastal Water Temperatures

Place Temperature

Nearby Weather Stations